createdAt,value
2018-08-24T00:02:07.415Z,21.48
2018-08-24T00:04:35.476Z,21.54
2018-08-24T00:07:03.541Z,21.50
2018-08-24T00:09:31.643Z,21.50
2018-08-24T00:11:59.707Z,21.49
2018-08-24T00:14:27.784Z,21.40
2018-08-24T00:16:55.883Z,21.31
2018-08-24T00:19:23.984Z,21.24
2018-08-24T00:21:52.092Z,21.27
2018-08-24T00:24:20.165Z,21.30
2018-08-24T00:26:48.270Z,21.26
2018-08-24T00:29:16.435Z,21.19
2018-08-24T00:31:44.598Z,21.17
2018-08-24T00:34:12.603Z,21.31
2018-08-24T00:36:40.711Z,21.28
2018-08-24T00:39:09.468Z,21.23
2018-08-24T00:41:37.615Z,21.25
2018-08-24T00:44:05.795Z,21.23
2018-08-24T00:46:33.866Z,21.19
2018-08-24T00:49:01.931Z,21.13
2018-08-24T00:51:30.011Z,21.11
2018-08-24T00:53:58.091Z,21.07
2018-08-24T00:59:00.631Z,21.22
2018-08-24T01:01:28.692Z,21.04
2018-08-24T01:03:56.771Z,21.13
2018-08-24T01:06:25.423Z,20.87
2018-08-24T01:08:53.491Z,20.74
2018-08-24T01:11:25.746Z,20.87
2018-08-24T01:13:54.098Z,20.88
2018-08-24T01:16:27.562Z,20.85
2018-08-24T01:18:55.623Z,20.80
2018-08-24T01:21:23.710Z,20.83
2018-08-24T01:23:52.043Z,20.74
2018-08-24T01:26:22.077Z,20.76
2018-08-24T01:28:50.787Z,20.76
2018-08-24T01:31:18.907Z,20.83
2018-08-24T01:33:46.976Z,20.76
2018-08-24T01:36:15.032Z,20.74
2018-08-24T01:38:43.102Z,20.67
2018-08-24T01:41:11.175Z,20.63
2018-08-24T01:43:39.261Z,20.72
2018-08-24T01:46:09.342Z,20.64
2018-08-24T01:48:37.700Z,20.67
2018-08-24T01:51:05.812Z,20.56
2018-08-24T01:53:33.962Z,20.54
2018-08-24T01:56:02.031Z,20.50
2018-08-24T01:58:30.100Z,20.58
2018-08-24T02:00:58.193Z,20.67
2018-08-24T02:03:26.274Z,20.65
2018-08-24T02:06:09.711Z,20.61
2018-08-24T02:08:38.333Z,20.36
2018-08-24T02:11:10.755Z,20.46
2018-08-24T02:13:44.447Z,20.31
2018-08-24T02:16:12.515Z,20.27
2018-08-24T02:18:45.855Z,20.29
2018-08-24T02:21:19.210Z,20.21
2018-08-24T02:23:47.279Z,20.18
2018-08-24T02:26:15.341Z,20.21
2018-08-24T02:28:43.408Z,20.23
2018-08-24T02:31:11.538Z,20.21
2018-08-24T02:33:40.163Z,20.24
2018-08-24T02:36:09.339Z,20.18
2018-08-24T02:38:37.495Z,20.01
2018-08-24T02:41:05.612Z,20.00
2018-08-24T02:43:33.695Z,20.02
2018-08-24T02:46:01.769Z,19.97
2018-08-24T02:48:29.829Z,19.86
2018-08-24T02:50:57.884Z,19.80
2018-08-24T02:53:26.160Z,19.75
2018-08-24T02:55:54.215Z,19.63
2018-08-24T02:58:22.300Z,19.64
2018-08-24T03:00:50.364Z,19.61
2018-08-24T03:03:18.476Z,19.54
2018-08-24T03:05:46.537Z,19.57
2018-08-24T03:08:14.650Z,19.57
2018-08-24T03:10:42.680Z,19.79
2018-08-24T03:13:10.750Z,19.81
2018-08-24T03:15:38.831Z,19.90
2018-08-24T03:18:06.893Z,19.77
2018-08-24T03:20:34.963Z,19.69
2018-08-24T03:23:03.080Z,19.80
2018-08-24T03:25:31.227Z,19.71
2018-08-24T03:27:59.325Z,19.61
2018-08-24T03:30:27.395Z,19.60
2018-08-24T03:32:55.447Z,19.54
2018-08-24T03:35:23.538Z,19.47
2018-08-24T03:37:51.595Z,19.53
2018-08-24T03:40:19.656Z,19.50
2018-08-24T03:42:47.721Z,19.43
2018-08-24T03:45:15.836Z,19.34
2018-08-24T03:47:43.899Z,19.33
2018-08-24T03:50:11.964Z,19.30
2018-08-24T03:52:40.055Z,19.34
2018-08-24T03:55:08.072Z,19.22
2018-08-24T03:57:36.127Z,19.23
2018-08-24T04:00:04.306Z,19.23
2018-08-24T04:02:32.379Z,19.25
2018-08-24T04:05:00.443Z,19.37
2018-08-24T04:07:28.515Z,19.29
2018-08-24T04:09:56.610Z,19.38
2018-08-24T04:12:24.657Z,19.36
2018-08-24T04:14:52.711Z,19.32
2018-08-24T04:17:26.080Z,19.27
2018-08-24T04:19:54.213Z,19.22
2018-08-24T04:22:22.330Z,19.29
2018-08-24T04:24:50.398Z,19.36
2018-08-24T04:27:18.472Z,19.39
2018-08-24T04:29:46.602Z,19.19
2018-08-24T04:32:14.664Z,19.27
2018-08-24T04:34:42.764Z,19.25
2018-08-24T04:37:10.844Z,19.19
2018-08-24T04:39:38.929Z,19.18
2018-08-24T04:42:06.988Z,19.19
2018-08-24T04:44:35.068Z,19.09
2018-08-24T04:47:03.132Z,19.10
2018-08-24T04:49:31.219Z,19.44
2018-08-24T04:51:59.291Z,19.23
2018-08-24T04:54:27.341Z,19.27
2018-08-24T04:56:55.392Z,19.22
2018-08-24T04:59:23.527Z,19.11
2018-08-24T05:01:51.609Z,19.02
2018-08-24T05:04:19.669Z,18.97
2018-08-24T05:06:47.740Z,18.90
2018-08-24T05:09:15.814Z,18.92
2018-08-24T05:11:43.878Z,19.09
2018-08-24T05:14:11.962Z,19.03
2018-08-24T05:16:40.031Z,18.97
2018-08-24T05:19:08.116Z,19.07
2018-08-24T05:21:36.171Z,19.16
2018-08-24T05:24:04.379Z,19.06
2018-08-24T05:26:32.479Z,19.15
2018-08-24T05:29:00.562Z,19.20
2018-08-24T05:31:28.631Z,19.13
2018-08-24T05:33:56.732Z,19.07
2018-08-24T05:36:24.832Z,19.10
2018-08-24T05:38:52.897Z,19.00
2018-08-24T05:41:21.003Z,19.03
2018-08-24T05:43:49.075Z,19.12
2018-08-24T05:46:17.131Z,19.16
2018-08-24T05:48:45.289Z,19.18
2018-08-24T05:51:13.367Z,19.22
2018-08-24T05:53:41.424Z,19.28
2018-08-24T05:56:09.492Z,19.35
2018-08-24T05:58:37.674Z,19.41
2018-08-24T06:01:05.736Z,19.50
2018-08-24T06:03:33.835Z,19.58
2018-08-24T06:06:02.995Z,19.78
2018-08-24T06:08:31.776Z,19.71
2018-08-24T06:11:00.667Z,19.83
2018-08-24T06:13:28.740Z,19.90
2018-08-24T06:18:31.335Z,19.99
2018-08-24T06:20:59.409Z,19.90
2018-08-24T06:23:27.635Z,19.89
2018-08-24T06:25:55.715Z,20.08
2018-08-24T06:28:23.775Z,20.13
2018-08-24T06:30:51.868Z,20.34
2018-08-24T06:33:22.735Z,20.60
2018-08-24T06:35:51.009Z,20.71
2018-08-24T06:38:19.103Z,20.86
2018-08-24T06:40:47.179Z,20.75
2018-08-24T06:43:15.248Z,20.94
2018-08-24T06:45:43.329Z,21.17
2018-08-24T06:48:11.388Z,21.24
2018-08-24T06:50:39.487Z,21.29
2018-08-24T06:53:07.633Z,21.48
2018-08-24T06:55:35.606Z,21.58
2018-08-24T06:58:03.751Z,21.32
2018-08-24T07:00:32.640Z,21.20
2018-08-24T07:03:01.742Z,21.25
2018-08-24T07:05:29.947Z,21.09
2018-08-24T07:07:58.038Z,21.07
2018-08-24T07:10:26.132Z,21.09
2018-08-24T07:12:54.293Z,20.99
2018-08-24T07:15:22.375Z,20.90
2018-08-24T07:17:55.861Z,20.89
2018-08-24T07:20:24.005Z,20.68
2018-08-24T07:22:52.205Z,20.49
2018-08-24T07:25:20.318Z,20.65
2018-08-24T07:27:48.427Z,20.52
2018-08-24T07:30:16.500Z,20.56
2018-08-24T07:32:44.569Z,20.36
2018-08-24T07:35:13.311Z,20.48
2018-08-24T07:37:41.384Z,20.56
2018-08-24T07:40:09.463Z,20.61
2018-08-24T07:42:37.535Z,20.59
2018-08-24T07:45:05.600Z,20.62
2018-08-24T07:47:33.673Z,20.62
2018-08-24T07:50:01.784Z,20.52
2018-08-24T07:52:29.858Z,20.65
2018-08-24T07:54:57.922Z,20.56
2018-08-24T07:57:26.009Z,20.70
2018-08-24T07:59:54.133Z,20.74
2018-08-24T08:02:27.547Z,20.74
2018-08-24T08:04:55.631Z,20.80
2018-08-24T08:07:23.732Z,20.84
2018-08-24T08:09:51.847Z,20.90
2018-08-24T08:12:19.935Z,20.75
2018-08-24T08:14:53.276Z,20.82
2018-08-24T08:17:21.417Z,20.85
2018-08-24T08:19:49.486Z,20.70
2018-08-24T08:22:17.568Z,20.86
2018-08-24T08:24:45.710Z,20.88
2018-08-24T08:27:13.765Z,21.09
2018-08-24T08:29:47.068Z,21.03
2018-08-24T08:32:15.152Z,21.09
2018-08-24T08:34:48.638Z,21.10
2018-08-24T08:37:16.744Z,21.30
2018-08-24T08:39:44.859Z,21.31
2018-08-24T08:42:12.929Z,21.20
2018-08-24T08:44:40.992Z,21.11
2018-08-24T08:47:09.143Z,21.22
2018-08-24T08:49:37.287Z,21.08
2018-08-24T08:52:05.475Z,21.19
2018-08-24T08:54:33.590Z,21.27
2018-08-24T08:57:01.718Z,21.35
2018-08-24T08:59:29.794Z,21.20
2018-08-24T09:01:57.857Z,21.23
2018-08-24T09:04:25.955Z,21.20
2018-08-24T09:06:54.014Z,20.89
2018-08-24T09:09:22.092Z,20.69
2018-08-24T09:11:50.403Z,20.23
2018-08-24T09:14:18.506Z,19.67
2018-08-24T09:16:46.565Z,19.79
2018-08-24T09:19:20.054Z,19.83
2018-08-24T09:21:53.544Z,19.88
2018-08-24T09:24:27.039Z,19.78
2018-08-24T09:27:00.376Z,19.82
2018-08-24T09:29:29.171Z,19.59
2018-08-24T09:31:58.896Z,19.73
2018-08-24T09:34:26.967Z,19.59
2018-08-24T09:36:55.126Z,19.43
2018-08-24T09:39:29.397Z,19.02
2018-08-24T09:41:59.240Z,18.77
2018-08-24T09:44:27.355Z,18.61
2018-08-24T09:47:00.844Z,18.27
2018-08-24T09:49:31.335Z,18.19
2018-08-24T09:51:59.433Z,18.03
2018-08-24T09:54:27.546Z,18.26
2018-08-24T09:56:55.670Z,18.31
2018-08-24T09:59:23.813Z,18.18
2018-08-24T10:01:57.135Z,18.05
2018-08-24T10:04:30.654Z,17.85
2018-08-24T10:07:04.128Z,17.55
2018-08-24T10:09:32.242Z,17.44
2018-08-24T10:12:00.295Z,17.37
2018-08-24T10:14:28.391Z,17.52
2018-08-24T10:16:56.457Z,17.66
2018-08-24T10:19:24.596Z,17.73
2018-08-24T10:21:52.651Z,17.99
2018-08-24T10:24:20.722Z,18.23
2018-08-24T10:26:48.799Z,18.17
2018-08-24T10:29:16.927Z,18.15
2018-08-24T10:31:44.959Z,18.55
2018-08-24T10:34:13.056Z,18.78
2018-08-24T10:36:41.116Z,19.04
2018-08-24T10:39:10.461Z,18.96
2018-08-24T10:41:38.427Z,19.00
2018-08-24T10:44:06.583Z,18.80
2018-08-24T10:46:34.683Z,18.68
2018-08-24T10:49:02.951Z,18.90
2018-08-24T10:51:31.096Z,18.90
2018-08-24T10:53:59.144Z,19.20
2018-08-24T10:56:27.296Z,19.25
2018-08-24T10:58:55.411Z,19.26
2018-08-24T11:01:23.511Z,19.35
2018-08-24T11:03:51.597Z,19.69
2018-08-24T11:06:19.683Z,19.51
2018-08-24T11:08:47.736Z,19.84
2018-08-24T11:11:15.843Z,19.77
2018-08-24T11:13:44.151Z,19.90
2018-08-24T11:16:12.479Z,20.18
2018-08-24T11:18:40.552Z,20.43
2018-08-24T11:21:08.639Z,20.82
2018-08-24T11:23:36.809Z,21.12
2018-08-24T11:26:04.970Z,20.76
2018-08-24T11:28:33.056Z,20.71
2018-08-24T11:31:01.091Z,21.01
2018-08-24T11:33:29.127Z,21.00
2018-08-24T11:35:57.268Z,20.44
2018-08-24T11:38:25.383Z,20.72
2018-08-24T11:40:53.455Z,20.88
2018-08-24T11:43:21.527Z,20.82
2018-08-24T11:45:49.619Z,20.76
2018-08-24T11:48:17.685Z,20.81
2018-08-24T11:50:45.751Z,20.80
2018-08-24T11:53:13.816Z,21.11
2018-08-24T11:55:41.884Z,21.12
2018-08-24T11:58:09.943Z,21.01
2018-08-24T12:00:38.001Z,21.09
2018-08-24T12:03:06.101Z,21.38
2018-08-24T12:05:34.180Z,21.29
2018-08-24T12:08:02.432Z,21.28
2018-08-24T12:10:30.344Z,21.43
2018-08-24T12:12:58.735Z,21.26
2018-08-24T12:15:26.804Z,21.47
2018-08-24T12:17:55.173Z,21.70
2018-08-24T12:20:23.235Z,21.91
2018-08-24T12:22:51.609Z,22.16
2018-08-24T12:25:19.646Z,22.27
2018-08-24T12:27:47.724Z,22.43
2018-08-24T12:30:15.800Z,22.58
2018-08-24T12:32:43.868Z,22.76
2018-08-24T12:35:11.988Z,22.53
2018-08-24T12:37:45.279Z,22.50
2018-08-24T12:40:13.955Z,22.31
2018-08-24T12:42:42.047Z,22.26
2018-08-24T12:45:10.104Z,21.90
2018-08-24T12:47:38.367Z,21.75
2018-08-24T12:50:07.281Z,21.76
2018-08-24T12:52:35.388Z,21.83
2018-08-24T12:55:03.547Z,22.04
2018-08-24T12:57:31.894Z,22.20
2018-08-24T13:00:00.659Z,22.48
2018-08-24T13:02:28.661Z,22.51
2018-08-24T13:04:56.945Z,22.44
2018-08-24T13:07:25.035Z,22.65
2018-08-24T13:09:53.155Z,22.74
2018-08-24T13:12:21.287Z,22.88
2018-08-24T13:14:49.359Z,22.94
2018-08-24T13:17:17.544Z,22.89
2018-08-24T13:19:45.639Z,22.77
2018-08-24T13:22:13.711Z,22.71
2018-08-24T13:24:41.837Z,22.77
2018-08-24T13:27:09.983Z,22.63
2018-08-24T13:29:38.008Z,22.90
2018-08-24T13:32:06.240Z,23.02
2018-08-24T13:34:34.298Z,22.94
2018-08-24T13:37:02.366Z,22.81
2018-08-24T13:39:30.443Z,23.06
2018-08-24T13:41:58.595Z,22.94
2018-08-24T13:44:26.671Z,22.91
2018-08-24T13:46:54.741Z,23.22
2018-08-24T13:49:22.848Z,23.23
2018-08-24T13:51:50.948Z,23.15
2018-08-24T13:54:19.035Z,23.43
2018-08-24T13:56:47.103Z,23.60
2018-08-24T13:59:21.606Z,23.83
2018-08-24T14:01:49.631Z,23.48
2018-08-24T14:04:17.804Z,23.54
2018-08-24T14:06:45.924Z,23.77
2018-08-24T14:09:13.991Z,24.05
2018-08-24T14:11:42.162Z,24.50
2018-08-24T14:14:10.382Z,24.55
2018-08-24T14:16:38.988Z,24.65
2018-08-24T14:19:07.083Z,24.48
2018-08-24T14:21:35.331Z,24.61
2018-08-24T14:24:03.412Z,24.69
2018-08-24T14:26:31.577Z,24.47
2018-08-24T14:28:59.656Z,24.27
2018-08-24T14:31:27.761Z,24.07
2018-08-24T14:33:55.831Z,23.85
2018-08-24T14:36:23.898Z,23.86
2018-08-24T14:39:14.307Z,24.07
2018-08-24T14:41:42.395Z,24.01
2018-08-24T14:44:17.225Z,24.06
2018-08-24T14:46:45.303Z,24.05
2018-08-24T14:49:13.389Z,24.27
2018-08-24T14:51:41.451Z,24.41
2018-08-24T14:54:09.533Z,24.53
2018-08-24T14:56:37.650Z,24.55
2018-08-24T14:59:05.913Z,24.83
2018-08-24T15:01:34.113Z,24.72
2018-08-24T15:04:02.223Z,24.62
2018-08-24T15:06:30.367Z,24.41
2018-08-24T15:08:58.445Z,24.31
2018-08-24T15:11:56.306Z,24.36
2018-08-24T15:14:24.445Z,24.43
2018-08-24T15:16:52.561Z,24.40
2018-08-24T15:19:20.676Z,24.33
2018-08-24T15:21:48.754Z,24.27
2018-08-24T15:24:18.477Z,24.30
2018-08-24T15:26:54.439Z,24.31
2018-08-24T15:35:38.659Z,24.24
2018-08-24T16:05:26.557Z,23.96
2018-08-24T16:07:54.634Z,23.83
2018-08-24T16:10:22.726Z,23.89
2018-08-24T16:12:50.836Z,23.91
2018-08-24T16:15:18.930Z,23.80
2018-08-24T16:17:51.268Z,23.65
2018-08-24T16:20:19.314Z,23.72
2018-08-24T16:22:47.387Z,23.80
2018-08-24T16:25:15.475Z,23.87
2018-08-24T16:27:43.520Z,23.70
2018-08-24T16:30:11.601Z,23.54
2018-08-24T16:32:39.664Z,23.46
2018-08-24T16:35:07.715Z,23.42
2018-08-24T16:37:35.775Z,23.39
2018-08-24T16:40:03.870Z,23.35
2018-08-24T16:42:31.935Z,23.31
2018-08-24T16:45:00.025Z,23.15
2018-08-24T16:47:28.096Z,23.22
2018-08-24T16:49:56.176Z,23.26
2018-08-24T16:52:24.271Z,23.28
2018-08-24T16:54:52.355Z,23.25
2018-08-24T16:57:20.415Z,23.21
2018-08-24T16:59:48.511Z,23.08
2018-08-24T17:02:16.585Z,22.94
2018-08-24T17:04:44.689Z,22.96
2018-08-24T17:07:12.752Z,23.02
2018-08-24T17:09:40.831Z,22.96
2018-08-24T17:12:08.888Z,22.91
2018-08-24T17:14:36.949Z,22.78
2018-08-24T17:17:05.219Z,22.80
2018-08-24T17:19:33.291Z,22.74
2018-08-24T17:22:01.373Z,22.72
2018-08-24T17:24:29.436Z,22.67
2018-08-24T17:26:57.498Z,22.63
2018-08-24T17:29:25.644Z,22.50
2018-08-24T17:31:53.755Z,22.54
2018-08-24T17:34:21.839Z,22.45
2018-08-24T17:36:49.917Z,22.42
2018-08-24T17:39:17.984Z,22.41
2018-08-24T17:41:46.107Z,22.38
2018-08-24T17:44:14.128Z,22.32
2018-08-24T17:46:42.192Z,22.33
2018-08-24T17:49:10.260Z,22.20
2018-08-24T17:51:38.330Z,22.14
2018-08-24T17:54:06.514Z,22.01
2018-08-24T17:56:34.685Z,21.93
2018-08-24T17:59:02.779Z,21.97
2018-08-24T18:01:30.851Z,22.07
2018-08-24T18:03:58.957Z,21.95
2018-08-24T18:06:27.070Z,21.86
2018-08-24T18:08:55.137Z,21.92
2018-08-24T18:11:23.217Z,21.84
2018-08-24T18:13:51.496Z,21.65
2018-08-24T18:16:19.552Z,21.62
2018-08-24T18:18:48.765Z,21.61
2018-08-24T18:21:20.158Z,21.65
2018-08-24T18:24:02.016Z,21.52
2018-08-24T18:26:32.432Z,21.59
2018-08-24T18:29:02.677Z,21.42
2018-08-24T18:31:34.066Z,21.21
2018-08-24T18:34:06.471Z,21.13
2018-08-24T18:36:35.729Z,21.21
2018-08-24T18:39:15.862Z,21.37
2018-08-24T18:41:45.208Z,21.11
2018-08-24T18:44:15.418Z,21.16
2018-08-24T18:46:45.266Z,21.19
2018-08-24T18:49:17.053Z,21.03
2018-08-24T18:51:55.340Z,21.12
2018-08-24T18:54:26.439Z,21.04
2018-08-24T18:57:12.315Z,20.99
2018-08-24T18:59:45.473Z,21.00
2018-08-24T19:02:14.253Z,21.10
2018-08-24T19:04:43.833Z,21.11
2018-08-24T19:07:14.726Z,20.98
2018-08-24T19:09:43.024Z,20.77
2018-08-24T19:12:16.655Z,20.88
2018-08-24T19:14:44.986Z,20.81
2018-08-24T19:19:22.305Z,20.63
2018-08-24T19:21:57.150Z,20.67
2018-08-24T19:24:31.825Z,20.68
2018-08-24T19:27:04.699Z,20.58
2018-08-24T19:29:50.048Z,20.56
2018-08-24T19:32:19.161Z,20.61
2018-08-24T19:34:52.643Z,20.48
2018-08-24T19:37:21.828Z,20.53
2018-08-24T19:39:59.904Z,20.58
2018-08-24T19:42:28.773Z,20.62
2018-08-24T19:45:01.940Z,20.54
2018-08-24T19:47:35.708Z,20.61
2018-08-24T19:50:03.994Z,20.56
2018-08-24T19:52:35.790Z,20.44
2018-08-24T19:55:13.795Z,20.45
2018-08-24T19:57:49.318Z,20.51
2018-08-24T20:00:22.221Z,20.53
2018-08-24T20:02:54.506Z,20.54
2018-08-24T20:05:24.607Z,20.37
2018-08-24T20:08:03.697Z,20.20
2018-08-24T20:10:32.927Z,20.21
2018-08-24T20:13:06.038Z,20.18
2018-08-24T20:15:41.098Z,20.05
2018-08-24T20:18:12.104Z,20.03
2018-08-24T20:20:44.117Z,20.03
2018-08-24T20:23:15.204Z,19.98
2018-08-24T20:25:44.626Z,19.83
2018-08-24T20:28:13.587Z,19.91
2018-08-24T20:30:41.869Z,19.80
2018-08-24T20:33:12.118Z,19.71
2018-08-24T20:35:41.521Z,19.68
2018-08-24T20:38:18.927Z,19.58
2018-08-24T20:40:54.043Z,19.59
2018-08-24T20:43:23.328Z,19.73
2018-08-24T20:45:54.044Z,19.59
2018-08-24T20:48:28.958Z,19.59
2018-08-24T20:51:03.062Z,19.73
2018-08-24T20:53:31.324Z,19.44
2018-08-24T20:56:15.519Z,19.60
2018-08-24T20:58:44.737Z,19.65
2018-08-24T21:01:13.264Z,19.52
2018-08-24T21:03:43.073Z,19.42
2018-08-24T21:06:12.245Z,19.44
2018-08-24T21:08:51.410Z,19.45
2018-08-24T21:11:30.045Z,19.51
2018-08-24T21:13:58.864Z,19.31
2018-08-24T21:16:28.152Z,19.23
2018-08-24T21:18:56.545Z,19.23
2018-08-24T21:21:26.612Z,19.18
2018-08-24T21:23:55.840Z,19.21
2018-08-24T21:26:24.488Z,19.22
2018-08-24T21:28:53.466Z,19.13
2018-08-24T21:31:22.829Z,19.29
2018-08-24T21:33:58.243Z,19.19
2018-08-24T21:36:28.062Z,19.15
2018-08-24T21:38:59.421Z,19.26
2018-08-24T21:41:30.980Z,19.27
2018-08-24T21:44:02.924Z,19.17
2018-08-24T21:46:31.039Z,19.11
2018-08-24T21:51:35.004Z,18.97
2018-08-24T21:54:03.690Z,19.07
2018-08-24T21:56:31.923Z,18.99
2018-08-24T21:59:05.746Z,18.82
2018-08-24T22:01:37.607Z,18.64
2018-08-24T22:04:09.504Z,18.54
2018-08-24T22:06:39.831Z,18.49
2018-08-24T22:09:14.302Z,18.58
2018-08-24T22:11:48.427Z,18.69
2018-08-24T22:14:17.876Z,18.58
2018-08-24T22:16:47.265Z,18.58
2018-08-24T22:19:23.507Z,18.59
2018-08-24T22:21:52.556Z,18.52
2018-08-24T22:31:09.885Z,18.52
2018-08-24T22:33:41.277Z,18.23
2018-08-24T22:36:10.913Z,18.29
2018-08-24T22:38:44.359Z,18.15
2018-08-24T22:41:13.992Z,18.24
2018-08-24T22:43:43.239Z,18.11
2018-08-24T22:46:11.356Z,18.17
2018-08-24T22:48:39.500Z,18.08
2018-08-24T22:51:07.684Z,18.20
2018-08-24T22:53:35.770Z,18.03
2018-08-24T22:56:03.836Z,18.05
2018-08-24T22:58:31.938Z,18.09
2018-08-24T23:01:00.032Z,18.02
2018-08-24T23:03:28.110Z,17.96
2018-08-24T23:05:56.216Z,17.97
2018-08-24T23:08:24.303Z,17.91
2018-08-24T23:10:52.363Z,17.81
2018-08-24T23:13:20.462Z,17.86
2018-08-24T23:15:48.538Z,17.83
2018-08-24T23:18:16.631Z,17.77
2018-08-24T23:20:44.715Z,17.56
2018-08-24T23:23:12.831Z,17.49
2018-08-24T23:25:40.908Z,17.59
2018-08-24T23:28:09.041Z,17.62
2018-08-24T23:30:37.149Z,17.58
2018-08-24T23:33:05.255Z,17.59
2018-08-24T23:35:33.381Z,17.60
2018-08-24T23:38:01.544Z,17.73
2018-08-24T23:40:29.626Z,17.79
2018-08-24T23:42:57.727Z,17.71
2018-08-24T23:45:25.819Z,17.71
2018-08-24T23:47:53.910Z,17.74
2018-08-24T23:50:22.013Z,17.65
2018-08-24T23:52:50.102Z,17.57
2018-08-24T23:55:18.188Z,17.55
2018-08-24T23:57:46.269Z,17.45
